»·PEaware :: N900TB KPSP-KPHX

N900TB :: KPSP-KPHX

FLIGHT INFORMATION

Flight Status: Arrived
Operator: Privately registered:
United States
More flights under this callsign
Pilot: Saso K. (7898)
Aircraft: SOCATA TBM-900
(TBM9)
More flights by this aircraft type
Origin: KPSP Palm Springs Intl
United States
Destination: KPHX Phoenix Sky Harbor Intl
United States
More flights between these airports :: More routes between these airports
Route: CATH1 PSP BLH ARLIN4
File this flight plan on PilotEdge
Remarks:
Altitude:
(Current/Filed)
23,000ft
Speed:
(Current/Filed)
300kts
Departed: 02-Jun-18 04:33 PM
Arrived: 02-Jun-18 05:37 PM
Distance/Time
Traveled:
225nm/1:04
Distance/Time
To Go:
Arrived

Flight Plot

Page will automatically refresh every two minutes.

Flight plan parsing failed; only flown route is shown


Map Options




Map Legend


Flown Route
Filed Route
Departure Airport
Arrival Airport
Navaid (VOR, NDB)
Fix

Horizontal Profiles

Position Reports

Time Latitude Longitude Heading Altitude Ground
Speed
02-Jun-18 15:57 33.822491 -116.495992 233 392ft 0kts
02-Jun-18 16:01 33.822491 -116.495992 232 392ft 0kts
02-Jun-18 16:02 33.822491 -116.495992 232 392ft 0kts
02-Jun-18 16:03 33.822491 -116.495992 232 392ft 0kts
02-Jun-18 16:04 33.822491 -116.495992 232 392ft 0kts
02-Jun-18 16:05 33.822491 -116.495992 232 392ft 0kts
02-Jun-18 16:06 33.822491 -116.495992 232 392ft 0kts
02-Jun-18 16:07 33.822491 -116.495992 232 392ft 0kts
02-Jun-18 16:08 33.822491 -116.495992 232 392ft 0kts
02-Jun-18 16:09 33.822491 -116.495992 232 392ft 0kts
02-Jun-18 16:10 33.822491 -116.495992 232 392ft 0kts
02-Jun-18 16:11 33.822491 -116.495992 232 392ft 0kts
02-Jun-18 16:12 33.822491 -116.495992 232 392ft 0kts
02-Jun-18 16:13 33.822491 -116.495992 232 392ft 0kts
02-Jun-18 16:14 33.822491 -116.495992 232 392ft 0kts
02-Jun-18 16:15 33.822491 -116.495992 232 392ft 0kts
02-Jun-18 16:16 33.822491 -116.495992 232 392ft 0kts
02-Jun-18 16:17 33.822491 -116.495992 232 392ft 0kts
02-Jun-18 16:18 33.822491 -116.495992 232 392ft 0kts
02-Jun-18 16:19 33.822491 -116.495992 232 392ft 0kts
02-Jun-18 16:20 33.822491 -116.495992 232 392ft 0kts
02-Jun-18 16:21 33.822491 -116.495992 232 392ft 0kts
02-Jun-18 16:22 33.822491 -116.495992 232 392ft 0kts
02-Jun-18 16:23 33.822491 -116.495992 232 392ft 0kts
02-Jun-18 16:24 33.822491 -116.495992 232 392ft 0kts
02-Jun-18 16:25 33.822260 -116.496562 263 393ft 5kts
02-Jun-18 16:26 33.822551 -116.497150 324 394ft 4kts
02-Jun-18 16:27 33.824200 -116.498636 323 399ft 2kts
02-Jun-18 16:28 33.824577 -116.498948 328 400ft 0kts
02-Jun-18 16:29 33.824716 -116.499167 294 401ft 3kts
02-Jun-18 16:30 33.824638 -116.499549 234 402ft 0kts
02-Jun-18 16:31 33.824638 -116.499549 234 402ft 0kts
02-Jun-18 16:32 33.824568 -116.500241 322 403ft 8kts
02-Jun-18 16:33 33.846045 -116.518858 320 1300ft 131kts
02-Jun-18 16:34 33.875227 -116.549626 325 3158ft 143kts
02-Jun-18 16:35 33.907158 -116.551813 73 5003ft 145kts
02-Jun-18 16:36 33.895070 -116.505782 110 6665ft 152kts
02-Jun-18 16:37 33.879599 -116.458880 110 8630ft 154kts
02-Jun-18 16:38 33.862343 -116.411839 114 10624ft 158kts
02-Jun-18 16:39 33.842369 -116.364823 114 12715ft 160kts
02-Jun-18 16:40 33.817811 -116.307195 113 13720ft 204kts
02-Jun-18 16:41 33.807369 -116.245200 96 15598ft 191kts
02-Jun-18 16:42 33.798599 -116.181603 96 17351ft 195kts
02-Jun-18 16:43 33.789668 -116.116383 95 19061ft 201kts
02-Jun-18 16:44 33.780466 -116.049474 95 20781ft 206kts
02-Jun-18 16:45 33.770935 -115.980252 95 22257ft 218kts
02-Jun-18 16:46 33.759949 -115.903806 96 23010ft 248kts
02-Jun-18 16:47 33.746276 -115.815463 95 22906ft 283kts
02-Jun-18 16:48 33.734526 -115.719938 95 22845ft 295kts
02-Jun-18 16:49 33.720832 -115.621980 95 22843ft 298kts
02-Jun-18 16:50 33.706918 -115.523846 96 22841ft 299kts
02-Jun-18 16:51 33.692811 -115.425001 96 22842ft 300kts
02-Jun-18 16:52 33.678768 -115.327088 96 22860ft 299kts
02-Jun-18 16:53 33.664789 -115.230130 96 22881ft 300kts
02-Jun-18 16:54 33.650468 -115.131552 96 22888ft 300kts
02-Jun-18 16:55 33.636290 -115.032810 103 22892ft 302kts
02-Jun-18 16:56 33.621536 -114.933860 102 22891ft 304kts
02-Jun-18 16:57 33.606765 -114.833720 102 22890ft 305kts
02-Jun-18 16:58 33.591078 -114.735739 105 22891ft 304kts
02-Jun-18 16:59 33.571981 -114.637003 105 22890ft 304kts
02-Jun-18 17:00 33.552706 -114.538029 105 22890ft 304kts
02-Jun-18 17:01 33.533570 -114.440214 105 22890ft 304kts
02-Jun-18 17:02 33.514211 -114.341698 105 22890ft 304kts
02-Jun-18 17:03 33.494996 -114.244330 105 22890ft 304kts
02-Jun-18 17:04 33.475420 -114.145609 105 22890ft 304kts
02-Jun-18 17:05 33.455826 -114.047233 105 22890ft 304kts
02-Jun-18 17:06 33.436183 -113.949044 105 22890ft 304kts
02-Jun-18 17:07 33.416338 -113.850299 105 22889ft 304kts
02-Jun-18 17:08 33.396498 -113.751990 105 22890ft 304kts
02-Jun-18 17:09 33.376563 -113.653638 105 22893ft 304kts
02-Jun-18 17:10 33.356044 -113.552919 105 21726ft 323kts
02-Jun-18 17:11 33.334347 -113.446843 105 20267ft 332kts
02-Jun-18 17:12 33.312432 -113.340175 105 18793ft 329kts
02-Jun-18 17:13 33.291007 -113.236391 105 17367ft 325kts
02-Jun-18 17:14 33.272649 -113.132167 89 15938ft 321kts
02-Jun-18 17:15 33.275410 -113.026261 89 14535ft 315kts
02-Jun-18 17:16 33.278019 -112.923125 89 13159ft 308kts
02-Jun-18 17:17 33.280481 -112.821857 89 11811ft 304kts
02-Jun-18 17:18 33.282846 -112.722167 89 10485ft 299kts
02-Jun-18 17:19 33.285051 -112.626089 89 10011ft 278kts
02-Jun-18 17:20 33.287053 -112.535661 89 10017ft 271kts
02-Jun-18 17:21 33.288956 -112.446765 89 10025ft 271kts
02-Jun-18 17:22 33.290797 -112.357281 89 9904ft 276kts
02-Jun-18 17:23 33.292684 -112.263127 90 7982ft 291kts
02-Jun-18 17:24 33.294508 -112.168029 90 6059ft 284kts
02-Jun-18 17:25 33.296174 -112.077889 90 6012ft 267kts
02-Jun-18 17:26 33.297687 -111.990691 89 6005ft 266kts
02-Jun-18 17:27 33.299257 -111.905331 89 6013ft 265kts
02-Jun-18 17:28 33.300336 -111.817603 89 5569ft 272kts
02-Jun-18 17:29 33.300083 -111.728822 89 4022ft 274kts
02-Jun-18 17:30 33.324286 -111.653832 8 3026ft 260kts
02-Jun-18 17:31 33.375009 -111.698410 310 3025ft 236kts
02-Jun-18 17:32 33.418713 -111.756162 309 3029ft 240kts
02-Jun-18 17:33 33.428626 -111.830650 268 3022ft 228kts
02-Jun-18 17:34 33.428736 -111.901489 267 2760ft 215kts
02-Jun-18 17:35 33.428809 -111.969354 266 1672ft 189kts
02-Jun-18 17:36 33.428851 -112.012051 271 1116ft 65kts
02-Jun-18 17:37 33.428144 -112.021801 191 1112ft 4kts
02-Jun-18 17:38 33.426472 -112.021135 181 1112ft 8kts
02-Jun-18 17:39 33.425382 -112.020566 271 1112ft 0kts
02-Jun-18 17:40 33.425382 -112.020566 271 1112ft 0kts

Navigation Log

Ident Type
Flight plan parsing failed, navigation log unavailable